createdAt,value
2022-10-01T00:04:29.908Z,225.03
2022-10-01T00:14:34.497Z,228.57
2022-10-01T00:24:37.806Z,227.40
2022-10-01T00:34:42.553Z,223.50
2022-10-01T00:44:46.450Z,224.00
2022-10-01T00:54:55.733Z,231.67
2022-10-01T01:04:59.066Z,243.40
2022-10-01T01:15:16.100Z,231.10
2022-10-01T01:25:23.657Z,230.40
2022-10-01T01:35:33.263Z,223.20
2022-10-01T01:45:40.072Z,220.40
2022-10-01T01:55:49.242Z,221.70
2022-10-01T02:06:07.329Z,222.33
2022-10-01T02:16:23.451Z,222.23
2022-10-01T02:26:29.773Z,230.67
2022-10-01T02:36:36.057Z,223.67
2022-10-01T02:46:45.388Z,215.97
2022-10-01T02:57:10.605Z,223.40
2022-10-01T03:07:13.817Z,225.97
2022-10-01T03:17:19.049Z,222.00
2022-10-01T03:27:23.368Z,217.03
2022-10-01T03:37:28.092Z,220.20
2022-10-01T03:47:31.316Z,217.27
2022-10-01T03:57:35.997Z,227.17
2022-10-01T04:07:39.399Z,244.80
2022-10-01T04:17:46.076Z,227.57
2022-10-01T04:28:00.144Z,225.77
2022-10-01T04:38:07.405Z,218.93
2022-10-01T04:48:10.613Z,217.20
2022-10-01T04:58:15.415Z,229.13
2022-10-01T05:08:18.677Z,230.00
2022-10-01T05:18:23.344Z,227.30
2022-10-01T05:28:27.097Z,232.27
2022-10-01T05:38:31.843Z,236.03
2022-10-01T05:48:37.051Z,238.57
2022-10-01T05:58:41.814Z,241.00
2022-10-01T06:08:46.905Z,240.10
2022-10-01T06:18:57.374Z,240.43
2022-10-01T06:29:00.837Z,246.53
2022-10-01T06:39:05.637Z,243.80
2022-10-01T06:49:09.058Z,240.97
2022-10-01T06:59:13.782Z,241.47
2022-10-01T07:09:17.023Z,242.23
2022-10-01T07:19:21.601Z,234.07
2022-10-01T07:29:25.149Z,232.30
2022-10-01T07:39:30.621Z,228.87
2022-10-01T07:49:33.878Z,237.90
2022-10-01T07:59:39.176Z,232.27
2022-10-01T08:09:42.431Z,237.80
2022-10-01T08:19:47.042Z,232.03
2022-10-01T08:29:50.260Z,228.23
2022-10-01T08:39:55.686Z,232.60
2022-10-01T08:50:07.535Z,239.67
2022-10-01T09:00:16.616Z,235.53
2022-10-01T09:10:36.933Z,234.97
2022-10-01T09:20:46.624Z,237.77
2022-10-01T09:30:57.641Z,238.10
2022-10-01T09:41:02.467Z,233.67
2022-10-01T09:51:12.229Z,231.70
2022-10-01T10:01:25.948Z,231.37
2022-10-01T10:11:32.389Z,229.40
2022-10-01T10:21:38.166Z,228.87
2022-10-01T10:31:45.675Z,233.77
2022-10-01T10:41:52.790Z,226.73
2022-10-01T10:51:57.484Z,230.77
2022-10-01T11:02:06.030Z,221.80
2022-10-01T11:12:29.255Z,221.83
2022-10-01T11:22:53.741Z,225.50
2022-10-01T11:33:10.785Z,245.80
2022-10-01T11:43:22.429Z,220.87
2022-10-01T11:53:33.354Z,225.40
2022-10-01T12:03:51.122Z,221.07
2022-10-01T12:14:03.600Z,224.60
2022-10-01T12:24:15.134Z,219.83
2022-10-01T12:34:29.261Z,220.30
2022-10-01T12:44:57.240Z,220.60
2022-10-01T12:55:34.353Z,221.00
2022-10-01T13:05:53.181Z,222.80
2022-10-01T13:16:05.278Z,229.63
2022-10-01T13:26:18.491Z,219.63
2022-10-01T13:36:32.149Z,234.20
2022-10-01T13:46:50.301Z,224.43
2022-10-01T13:56:53.688Z,234.30
2022-10-01T14:07:02.550Z,233.50
2022-10-01T14:17:07.960Z,219.87
2022-10-01T14:27:21.305Z,228.67
2022-10-01T14:37:24.881Z,230.37
2022-10-01T14:47:35.635Z,225.37
2022-10-01T14:57:42.530Z,229.70
2022-10-01T15:07:48.097Z,227.27
2022-10-01T15:17:51.885Z,223.30
2022-10-01T15:27:56.741Z,231.30
2022-10-01T15:38:00.808Z,225.97
2022-10-01T15:48:05.784Z,227.07
2022-10-01T15:58:16.877Z,232.90
2022-10-01T16:08:25.392Z,243.07
2022-10-01T16:18:32.952Z,237.20
2022-10-01T16:28:37.762Z,226.53
2022-10-01T16:38:41.051Z,235.77
2022-10-01T16:48:47.376Z,228.30
2022-10-01T16:58:50.589Z,236.53
2022-10-01T17:08:55.490Z,237.57
2022-10-01T17:18:58.800Z,248.63
2022-10-01T17:29:03.558Z,247.30
2022-10-01T17:39:06.788Z,242.90
2022-10-01T17:49:19.958Z,243.47
2022-10-01T17:59:23.490Z,245.53
2022-10-01T18:09:28.146Z,249.83
2022-10-01T18:19:53.026Z,247.07
2022-10-01T18:29:56.146Z,238.73
2022-10-01T18:40:07.035Z,236.77
2022-10-01T18:50:25.803Z,217.60
2022-10-01T19:00:37.700Z,225.03
2022-10-01T19:10:49.768Z,215.97
2022-10-01T19:21:04.932Z,206.03
2022-10-01T19:31:17.219Z,207.63
2022-10-01T19:41:26.772Z,202.57
2022-10-01T19:51:38.795Z,202.13
2022-10-01T20:01:52.603Z,208.27
2022-10-01T20:12:05.651Z,205.00
2022-10-01T20:22:20.031Z,201.27
2022-10-01T20:32:31.761Z,200.63
2022-10-01T20:42:40.413Z,202.50
2022-10-01T20:52:53.329Z,205.63
2022-10-01T21:03:05.851Z,202.47
2022-10-01T21:13:17.604Z,208.77
2022-10-01T21:23:45.947Z,205.70
2022-10-01T21:33:54.716Z,206.23
2022-10-01T21:44:48.118Z,207.13
2022-10-01T21:55:17.757Z,202.30
2022-10-01T22:05:29.406Z,210.33
2022-10-01T22:15:39.714Z,204.20
2022-10-01T22:25:51.587Z,204.83
2022-10-01T22:36:03.000Z,201.47
2022-10-01T22:46:40.525Z,204.30
2022-10-01T22:56:57.347Z,203.97
2022-10-01T23:07:15.456Z,202.70
2022-10-01T23:17:27.951Z,198.97
2022-10-01T23:27:39.880Z,198.03
2022-10-01T23:38:06.353Z,204.50
2022-10-01T23:48:17.231Z,202.17
2022-10-01T23:58:24.284Z,204.73
